sensor_id;sensor_type;location;lat;lon;timestamp;pressure;altitude;pressure_sealevel;temperature;humidity
49030;BME280;43337;52.070;4.508;2023-05-02T00:01:36;102217.84;;;10.47;100.00
49030;BME280;43337;52.070;4.508;2023-05-02T00:04:01;102225.72;;;10.49;100.00
49030;BME280;43337;52.070;4.508;2023-05-02T00:06:27;102230.06;;;10.51;100.00
49030;BME280;43337;52.070;4.508;2023-05-02T00:08:56;102243.91;;;10.61;100.00
49030;BME280;43337;52.070;4.508;2023-05-02T00:11:21;102251.84;;;10.60;100.00
49030;BME280;43337;52.070;4.508;2023-05-02T00:13:48;102236.91;;;10.60;100.00
49030;BME280;43337;52.070;4.508;2023-05-02T00:16:13;102239.53;;;10.62;100.00
49030;BME280;43337;52.070;4.508;2023-05-02T00:18:38;102245.50;;;10.70;100.00
49030;BME280;43337;52.070;4.508;2023-05-02T00:21:04;102246.41;;;10.69;100.00
49030;BME280;43337;52.070;4.508;2023-05-02T00:23:30;102241.16;;;10.67;100.00
49030;BME280;43337;52.070;4.508;2023-05-02T00:25:55;102253.25;;;10.76;100.00
49030;BME280;43337;52.070;4.508;2023-05-02T00:28:20;102248.03;;;10.74;100.00
49030;BME280;43337;52.070;4.508;2023-05-02T00:30:46;102254.16;;;10.77;100.00
49030;BME280;43337;52.070;4.508;2023-05-02T00:33:12;102256.78;;;10.77;100.00
49030;BME280;43337;52.070;4.508;2023-05-02T00:35:38;102257.75;;;10.72;100.00
49030;BME280;43337;52.070;4.508;2023-05-02T00:38:03;102249.81;;;10.74;100.00
49030;BME280;43337;52.070;4.508;2023-05-02T00:40:29;102234.97;;;10.68;100.00
49030;BME280;43337;52.070;4.508;2023-05-02T00:42:55;102246.25;;;10.75;100.00
49030;BME280;43337;52.070;4.508;2023-05-02T00:45:21;102247.16;;;10.74;100.00
49030;BME280;43337;52.070;4.508;2023-05-02T00:47:48;102243.72;;;10.70;100.00
49030;BME280;43337;52.070;4.508;2023-05-02T00:50:14;102248.94;;;10.72;100.00
49030;BME280;43337;52.070;4.508;2023-05-02T00:52:39;102237.00;;;10.56;100.00
49030;BME280;43337;52.070;4.508;2023-05-02T00:55:06;102240.38;;;10.62;100.00
49030;BME280;43337;52.070;4.508;2023-05-02T00:57:32;102264.84;;;10.67;100.00
49030;BME280;43337;52.070;4.508;2023-05-02T00:59:58;102277.13;;;10.68;100.00
49030;BME280;43337;52.070;4.508;2023-05-02T01:02:50;102280.75;;;10.63;100.00
49030;BME280;43337;52.070;4.508;2023-05-02T01:05:26;102279.97;;;10.58;100.00
49030;BME280;43337;52.070;4.508;2023-05-02T01:08:24;102274.78;;;10.55;100.00
49030;BME280;43337;52.070;4.508;2023-05-02T01:11:27;102274.88;;;10.50;100.00
49030;BME280;43337;52.070;4.508;2023-05-02T01:13:56;102274.06;;;10.46;100.00
49030;BME280;43337;52.070;4.508;2023-05-02T01:16:23;102281.84;;;10.51;100.00
49030;BME280;43337;52.070;4.508;2023-05-02T01:18:50;102267.06;;;10.44;100.00
49030;BME280;43337;52.070;4.508;2023-05-02T01:21:16;102278.38;;;10.49;100.00
49030;BME280;43337;52.070;4.508;2023-05-02T01:24:05;102283.63;;;10.49;100.00
49030;BME280;43337;52.070;4.508;2023-05-02T01:26:55;102280.19;;;10.47;100.00
49030;BME280;43337;52.070;4.508;2023-05-02T01:29:23;102277.59;;;10.44;100.00
49030;BME280;43337;52.070;4.508;2023-05-02T01:31:49;102283.63;;;10.50;100.00
49030;BME280;43337;52.070;4.508;2023-05-02T01:34:18;102285.41;;;10.48;100.00
49030;BME280;43337;52.070;4.508;2023-05-02T01:36:46;102301.19;;;10.50;100.00
49030;BME280;43337;52.070;4.508;2023-05-02T01:39:16;102302.97;;;10.48;100.00
49030;BME280;43337;52.070;4.508;2023-05-02T01:41:45;102306.47;;;10.50;100.00
49030;BME280;43337;52.070;4.508;2023-05-02T01:44:14;102298.63;;;10.47;100.00
49030;BME280;43337;52.070;4.508;2023-05-02T01:46:42;102296.94;;;10.43;100.00
49030;BME280;43337;52.070;4.508;2023-05-02T01:49:08;102277.78;;;10.33;100.00
49030;BME280;43337;52.070;4.508;2023-05-02T01:51:36;102294.31;;;10.43;100.00
49030;BME280;43337;52.070;4.508;2023-05-02T01:54:06;102312.69;;;10.46;100.00
49030;BME280;43337;52.070;4.508;2023-05-02T01:56:34;102297.94;;;10.36;100.00
49030;BME280;43337;52.070;4.508;2023-05-02T01:59:07;102312.72;;;10.43;100.00
49030;BME280;43337;52.070;4.508;2023-05-02T02:01:35;102318.88;;;10.43;100.00
49030;BME280;43337;52.070;4.508;2023-05-02T02:04:01;102298.13;;;10.26;100.00
49030;BME280;43337;52.070;4.508;2023-05-02T02:06:28;102330.34;;;10.39;100.00
49030;BME280;43337;52.070;4.508;2023-05-02T02:08:54;102332.19;;;10.34;100.00
49030;BME280;43337;52.070;4.508;2023-05-02T02:11:26;102341.78;;;10.37;100.00
49030;BME280;43337;52.070;4.508;2023-05-02T02:14:16;102350.63;;;10.33;100.00
49030;BME280;43337;52.070;4.508;2023-05-02T02:16:43;102350.69;;;10.31;100.00
49030;BME280;43337;52.070;4.508;2023-05-02T02:19:10;102356.00;;;10.28;100.00
49030;BME280;43337;52.070;4.508;2023-05-02T02:21:37;102332.56;;;10.10;100.00
49030;BME280;43337;52.070;4.508;2023-05-02T02:24:05;102346.47;;;10.18;100.00
49030;BME280;43337;52.070;4.508;2023-05-02T02:26:32;102359.59;;;10.21;100.00
49030;BME280;43337;52.070;4.508;2023-05-02T02:28:59;102357.06;;;10.15;100.00
49030;BME280;43337;52.070;4.508;2023-05-02T02:31:34;102359.66;;;10.16;100.00
49030;BME280;43337;52.070;4.508;2023-05-02T02:34:00;102365.00;;;10.12;100.00
49030;BME280;43337;52.070;4.508;2023-05-02T02:36:45;102364.16;;;10.10;100.00
49030;BME280;43337;52.070;4.508;2023-05-02T02:44:53;102372.94;;;10.09;100.00
49030;BME280;43337;52.070;4.508;2023-05-02T02:47:31;102366.78;;;10.10;100.00
49030;BME280;43337;52.070;4.508;2023-05-02T02:50:07;102369.44;;;10.08;100.00
49030;BME280;43337;52.070;4.508;2023-05-02T02:52:58;102378.25;;;10.06;100.00
49030;BME280;43337;52.070;4.508;2023-05-02T02:55:47;102380.91;;;10.02;100.00
49030;BME280;43337;52.070;4.508;2023-05-02T03:01:23;102380.22;;;9.93;100.00
49030;BME280;43337;52.070;4.508;2023-05-02T03:03:50;102381.09;;;9.92;100.00
49030;BME280;43337;52.070;4.508;2023-05-02T03:06:17;102381.19;;;9.86;100.00
49030;BME280;43337;52.070;4.508;2023-05-02T03:08:43;102389.00;;;9.90;100.00
49030;BME280;43337;52.070;4.508;2023-05-02T03:11:09;102389.91;;;9.89;100.00
49030;BME280;43337;52.070;4.508;2023-05-02T03:13:35;102401.25;;;9.91;100.00
49030;BME280;43337;52.070;4.508;2023-05-02T03:16:46;102393.38;;;9.91;100.00
49030;BME280;43337;52.070;4.508;2023-05-02T03:18:46;102402.19;;;9.89;100.00
49030;BME280;43337;52.070;4.508;2023-05-02T03:21:11;102408.31;;;9.88;100.00
49030;BME280;43337;52.070;4.508;2023-05-02T03:23:37;102417.09;;;9.88;100.00
49030;BME280;43337;52.070;4.508;2023-05-02T03:26:02;102414.53;;;9.85;100.00
49030;BME280;43337;52.070;4.508;2023-05-02T03:28:27;102420.69;;;9.84;100.00
49030;BME280;43337;52.070;4.508;2023-05-02T03:30:53;102419.88;;;9.76;100.00
49030;BME280;43337;52.070;4.508;2023-05-02T03:33:18;102429.53;;;9.75;100.00
49030;BME280;43337;52.070;4.508;2023-05-02T03:35:44;102431.28;;;9.78;100.00
49030;BME280;43337;52.070;4.508;2023-05-02T03:38:10;102428.69;;;9.76;100.00
49030;BME280;43337;52.070;4.508;2023-05-02T03:40:35;102431.31;;;9.75;100.00
49030;BME280;43337;52.070;4.508;2023-05-02T03:43:00;102427.84;;;9.71;100.00
49030;BME280;43337;52.070;4.508;2023-05-02T03:45:26;102422.66;;;9.67;100.00
49030;BME280;43337;52.070;4.508;2023-05-02T03:47:51;102433.09;;;9.71;100.00
49030;BME280;43337;52.070;4.508;2023-05-02T03:50:17;102439.25;;;9.70;100.00
49030;BME280;43337;52.070;4.508;2023-05-02T03:52:42;102441.97;;;9.66;100.00
49030;BME280;43337;52.070;4.508;2023-05-02T03:55:07;102448.06;;;9.69;100.00
49030;BME280;43337;52.070;4.508;2023-05-02T03:57:33;102448.03;;;9.71;100.00
49030;BME280;43337;52.070;4.508;2023-05-02T03:59:58;102451.53;;;9.68;100.00
49030;BME280;43337;52.070;4.508;2023-05-02T04:02:24;102456.81;;;9.68;100.00
49030;BME280;43337;52.070;4.508;2023-05-02T04:04:50;102454.25;;;9.64;100.00
49030;BME280;43337;52.070;4.508;2023-05-02T04:07:15;102449.00;;;9.62;100.00
49030;BME280;43337;52.070;4.508;2023-05-02T04:09:43;102456.88;;;9.64;100.00
49030;BME280;43337;52.070;4.508;2023-05-02T04:12:09;102456.91;;;9.61;100.00
49030;BME280;43337;52.070;4.508;2023-05-02T04:14:34;102446.47;;;9.54;100.00
49030;BME280;43337;52.070;4.508;2023-05-02T04:17:00;102426.47;;;9.43;100.00
49030;BME280;43337;52.070;4.508;2023-05-02T04:19:25;102473.50;;;9.64;100.00
49030;BME280;43337;52.070;4.508;2023-05-02T04:21:51;102470.91;;;9.63;100.00
49030;BME280;43337;52.070;4.508;2023-05-02T04:24:17;102474.44;;;9.62;100.00
49030;BME280;43337;52.070;4.508;2023-05-02T04:26:43;102478.88;;;9.58;100.00
49030;BME280;43337;52.070;4.508;2023-05-02T04:29:08;102485.03;;;9.56;100.00
49030;BME280;43337;52.070;4.508;2023-05-02T04:31:34;102479.78;;;9.52;100.00
49030;BME280;43337;52.070;4.508;2023-05-02T04:33:59;102480.72;;;9.48;100.00
49030;BME280;43337;52.070;4.508;2023-05-02T04:36:26;102489.47;;;9.49;100.00
49030;BME280;43337;52.070;4.508;2023-05-02T04:38:52;102491.25;;;9.47;100.00
49030;BME280;43337;52.070;4.508;2023-05-02T04:41:18;102498.28;;;9.46;100.00
49030;BME280;43337;52.070;4.508;2023-05-02T04:43:43;102493.06;;;9.43;100.00
49030;BME280;43337;52.070;4.508;2023-05-02T04:46:08;102504.41;;;9.47;100.00
49030;BME280;43337;52.070;4.508;2023-05-02T04:48:34;102511.44;;;9.46;100.00
49030;BME280;43337;52.070;4.508;2023-05-02T04:50:59;102516.66;;;9.49;100.00
49030;BME280;43337;52.070;4.508;2023-05-02T04:53:25;102500.09;;;9.40;100.00
49030;BME280;43337;52.070;4.508;2023-05-02T04:55:50;102491.44;;;9.32;100.00
49030;BME280;43337;52.070;4.508;2023-05-02T04:58:16;102489.69;;;9.31;100.00
49030;BME280;43337;52.070;4.508;2023-05-02T05:00:41;102502.75;;;9.38;100.00
49030;BME280;43337;52.070;4.508;2023-05-02T05:03:06;102509.75;;;9.39;100.00
49030;BME280;43337;52.070;4.508;2023-05-02T05:05:32;102525.44;;;9.47;100.00
49030;BME280;43337;52.070;4.508;2023-05-02T05:07:57;102520.25;;;9.42;100.00
49030;BME280;43337;52.070;4.508;2023-05-02T05:10:23;102515.00;;;9.39;100.00
49030;BME280;43337;52.070;4.508;2023-05-02T05:12:48;102515.91;;;9.38;100.00
49030;BME280;43337;52.070;4.508;2023-05-02T05:15:14;102540.31;;;9.48;100.00
49030;BME280;43337;52.070;4.508;2023-05-02T05:17:40;102532.50;;;9.40;100.00
49030;BME280;43337;52.070;4.508;2023-05-02T05:20:06;102538.63;;;9.44;100.00
49030;BME280;43337;52.070;4.508;2023-05-02T05:22:42;102538.66;;;9.38;100.00
49030;BME280;43337;52.070;4.508;2023-05-02T05:25:08;102536.09;;;9.35;100.00
49030;BME280;43337;52.070;4.508;2023-05-02T05:27:34;102559.69;;;9.42;100.00
49030;BME280;43337;52.070;4.508;2023-05-02T05:30:00;102562.31;;;9.42;100.00
49030;BME280;43337;52.070;4.508;2023-05-02T05:32:25;102559.66;;;9.44;100.00
49030;BME280;43337;52.070;4.508;2023-05-02T05:34:54;102546.53;;;9.41;100.00
49030;BME280;43337;52.070;4.508;2023-05-02T05:37:19;102559.59;;;9.50;100.00
49030;BME280;43337;52.070;4.508;2023-05-02T05:39:46;102564.84;;;9.48;100.00
49030;BME280;43337;52.070;4.508;2023-05-02T05:42:11;102556.97;;;9.50;100.00
49030;BME280;43337;52.070;4.508;2023-05-02T05:44:37;102584.06;;;9.55;100.00
49030;BME280;43337;52.070;4.508;2023-05-02T05:47:04;102571.84;;;9.51;100.00
49030;BME280;43337;52.070;4.508;2023-05-02T05:49:30;102584.94;;;9.56;100.00
49030;BME280;43337;52.070;4.508;2023-05-02T05:51:56;102586.69;;;9.57;100.00
49030;BME280;43337;52.070;4.508;2023-05-02T05:54:21;102580.56;;;9.54;100.00
49030;BME280;43337;52.070;4.508;2023-05-02T05:56:46;102590.19;;;9.56;100.00
49030;BME280;43337;52.070;4.508;2023-05-02T05:59:12;102596.28;;;9.61;100.00
49030;BME280;43337;52.070;4.508;2023-05-02T06:01:38;102612.94;;;9.60;100.00
49030;BME280;43337;52.070;4.508;2023-05-02T06:04:03;102620.84;;;9.60;100.00
49030;BME280;43337;52.070;4.508;2023-05-02T06:06:32;102613.88;;;9.57;100.00
49030;BME280;43337;52.070;4.508;2023-05-02T06:08:57;102627.84;;;9.59;100.00
49030;BME280;43337;52.070;4.508;2023-05-02T06:11:22;102629.66;;;9.57;100.00
49030;BME280;43337;52.070;4.508;2023-05-02T06:13:52;102639.22;;;9.63;100.00
49030;BME280;43337;52.070;4.508;2023-05-02T06:16:18;102626.09;;;9.60;100.00
49030;BME280;43337;52.070;4.508;2023-05-02T06:18:44;102621.78;;;9.54;100.00
49030;BME280;43337;52.070;4.508;2023-05-02T06:21:10;102644.50;;;9.61;100.00
49030;BME280;43337;52.070;4.508;2023-05-02T06:23:35;102640.97;;;9.61;100.00
49030;BME280;43337;52.070;4.508;2023-05-02T06:26:02;102647.13;;;9.61;100.00
49030;BME280;43337;52.070;4.508;2023-05-02T06:28:28;102642.81;;;9.54;100.00
49030;BME280;43337;52.070;4.508;2023-05-02T06:31:01;102654.13;;;9.62;100.00
49030;BME280;43337;52.070;4.508;2023-05-02T06:33:28;102663.75;;;9.65;100.00
49030;BME280;43337;52.070;4.508;2023-05-02T06:35:54;102652.34;;;9.64;100.00
49030;BME280;43337;52.070;4.508;2023-05-02T06:38:20;102669.81;;;9.71;100.00
49030;BME280;43337;52.070;4.508;2023-05-02T06:40:46;102668.94;;;9.74;100.00
49030;BME280;43337;52.070;4.508;2023-05-02T06:43:12;102672.34;;;9.82;100.00
49030;BME280;43337;52.070;4.508;2023-05-02T06:45:38;102670.59;;;9.79;100.00
49030;BME280;43337;52.070;4.508;2023-05-02T06:48:04;102671.41;;;9.89;100.00
49030;BME280;43337;52.070;4.508;2023-05-02T06:50:29;102676.59;;;9.97;100.00
49030;BME280;43337;52.070;4.508;2023-05-02T06:52:54;102688.81;;;10.04;100.00
49030;BME280;43337;52.070;4.508;2023-05-02T06:55:20;102682.53;;;10.16;100.00
49030;BME280;43337;52.070;4.508;2023-05-02T06:57:47;102694.69;;;10.31;100.00
49030;BME280;43337;52.070;4.508;2023-05-02T07:00:15;102678.78;;;10.38;100.00
49030;BME280;43337;52.070;4.508;2023-05-02T07:02:40;102700.50;;;10.57;100.00
49030;BME280;43337;52.070;4.508;2023-05-02T07:05:06;102698.69;;;10.62;100.00
49030;BME280;43337;52.070;4.508;2023-05-02T07:07:31;102697.84;;;10.59;100.00
49030;BME280;43337;52.070;4.508;2023-05-02T07:09:56;102694.38;;;10.55;100.00
49030;BME280;43337;52.070;4.508;2023-05-02T07:12:22;102674.31;;;10.45;100.00
49030;BME280;43337;52.070;4.508;2023-05-02T07:14:47;102692.72;;;10.49;100.00
49030;BME280;43337;52.070;4.508;2023-05-02T07:17:12;102710.25;;;10.50;100.00
49030;BME280;43337;52.070;4.508;2023-05-02T07:19:38;102712.94;;;10.44;100.00
49030;BME280;43337;52.070;4.508;2023-05-02T07:22:03;102703.34;;;10.42;100.00
49030;BME280;43337;52.070;4.508;2023-05-02T07:24:28;102713.88;;;10.42;100.00
49030;BME280;43337;52.070;4.508;2023-05-02T07:26:54;102710.34;;;10.41;100.00
49030;BME280;43337;52.070;4.508;2023-05-02T07:29:19;102707.72;;;10.40;100.00
49030;BME280;43337;52.070;4.508;2023-05-02T07:31:45;102712.97;;;10.43;100.00
49030;BME280;43337;52.070;4.508;2023-05-02T07:34:10;102722.53;;;10.50;100.00
49030;BME280;43337;52.070;4.508;2023-05-02T07:36:35;102726.03;;;10.50;100.00
49030;BME280;43337;52.070;4.508;2023-05-02T07:39:01;102728.63;;;10.55;100.00
49030;BME280;43337;52.070;4.508;2023-05-02T07:41:26;102727.72;;;10.56;100.00
49030;BME280;43337;52.070;4.508;2023-05-02T07:43:51;102725.09;;;10.56;100.00
49030;BME280;43337;52.070;4.508;2023-05-02T07:46:16;102740.84;;;10.59;100.00
49030;BME280;43337;52.070;4.508;2023-05-02T07:48:42;102738.97;;;10.70;100.00
49030;BME280;43337;52.070;4.508;2023-05-02T07:51:08;102743.13;;;10.87;100.00
49030;BME280;43337;52.070;4.508;2023-05-02T07:53:34;102709.84;;;10.81;100.00
49030;BME280;43337;52.070;4.508;2023-05-02T07:56:00;102735.84;;;11.07;100.00
49030;BME280;43337;52.070;4.508;2023-05-02T07:58:26;102744.50;;;11.17;100.00
49030;BME280;43337;52.070;4.508;2023-05-02T08:00:52;102746.22;;;11.19;100.00
49030;BME280;43337;52.070;4.508;2023-05-02T08:03:17;102755.84;;;11.23;100.00
49030;BME280;43337;52.070;4.508;2023-05-02T08:05:42;102735.78;;;11.12;100.00
49030;BME280;43337;52.070;4.508;2023-05-02T08:08:08;102762.00;;;11.22;100.00
49030;BME280;43337;52.070;4.508;2023-05-02T08:10:33;102758.56;;;11.14;98.39
49030;BME280;43337;52.070;4.508;2023-05-02T08:12:58;102750.81;;;11.05;99.91
49030;BME280;43337;52.070;4.508;2023-05-02T08:15:24;102769.06;;;11.20;96.67
49030;BME280;43337;52.070;4.508;2023-05-02T08:17:49;102760.16;;;11.28;93.64
49030;BME280;43337;52.070;4.508;2023-05-02T08:20:15;102748.75;;;11.25;91.13
49030;BME280;43337;52.070;4.508;2023-05-02T08:22:40;102770.75;;;11.24;92.05
49030;BME280;43337;52.070;4.508;2023-05-02T08:25:06;102771.72;;;11.19;87.45
49030;BME280;43337;52.070;4.508;2023-05-02T08:27:31;102773.47;;;11.20;89.97
49030;BME280;43337;52.070;4.508;2023-05-02T08:29:59;102766.28;;;11.30;91.43
49030;BME280;43337;52.070;4.508;2023-05-02T08:32:24;102764.34;;;11.41;90.80
49030;BME280;43337;52.070;4.508;2023-05-02T08:34:54;102779.03;;;11.59;85.51
49030;BME280;43337;52.070;4.508;2023-05-02T08:37:20;102767.47;;;11.67;86.96
49030;BME280;43337;52.070;4.508;2023-05-02T08:39:45;102775.97;;;11.88;86.37
49030;BME280;43337;52.070;4.508;2023-05-02T08:42:11;102787.13;;;12.04;84.00
49030;BME280;43337;52.070;4.508;2023-05-02T08:44:36;102779.78;;;12.21;85.98
49030;BME280;43337;52.070;4.508;2023-05-02T08:47:02;102794.38;;;12.40;85.77
49030;BME280;43337;52.070;4.508;2023-05-02T08:49:32;102789.63;;;12.59;81.13
49030;BME280;43337;52.070;4.508;2023-05-02T08:51:59;102758.78;;;12.60;79.69
49030;BME280;43337;52.070;4.508;2023-05-02T08:54:26;102790.09;;;12.80;78.03
49030;BME280;43337;52.070;4.508;2023-05-02T08:56:55;102785.66;;;12.82;80.26
49030;BME280;43337;52.070;4.508;2023-05-02T08:59:23;102796.06;;;12.89;75.90
49030;BME280;43337;52.070;4.508;2023-05-02T09:01:52;102779.13;;;12.98;77.75
49030;BME280;43337;52.070;4.508;2023-05-02T09:04:23;102792.09;;;13.10;75.80
49030;BME280;43337;52.070;4.508;2023-05-02T09:06:54;102786.63;;;13.19;73.60
49030;BME280;43337;52.070;4.508;2023-05-02T09:09:19;102796.84;;;13.36;69.02
49030;BME280;43337;52.070;4.508;2023-05-02T09:11:46;102793.09;;;13.47;70.83
49030;BME280;43337;52.070;4.508;2023-05-02T09:14:15;102804.41;;;13.53;69.96
49030;BME280;43337;52.070;4.508;2023-05-02T09:16:41;102803.44;;;13.56;68.44
49030;BME280;43337;52.070;4.508;2023-05-02T09:19:07;102814.16;;;13.51;69.45
49030;BME280;43337;52.070;4.508;2023-05-02T09:21:37;102803.00;;;13.37;66.19
49030;BME280;43337;52.070;4.508;2023-05-02T09:24:15;102806.78;;;13.27;64.64
49030;BME280;43337;52.070;4.508;2023-05-02T09:26:42;102797.34;;;13.12;69.85
49030;BME280;43337;52.070;4.508;2023-05-02T09:29:08;102821.88;;;13.20;69.96
49030;BME280;43337;52.070;4.508;2023-05-02T09:31:34;102813.78;;;13.28;69.85
49030;BME280;43337;52.070;4.508;2023-05-02T09:34:16;102806.56;;;13.36;64.87
49030;BME280;43337;52.070;4.508;2023-05-02T09:36:47;102819.53;;;13.47;66.41
49030;BME280;43337;52.070;4.508;2023-05-02T09:39:16;102816.72;;;13.54;67.67
49030;BME280;43337;52.070;4.508;2023-05-02T09:41:43;102802.66;;;13.52;68.60
49030;BME280;43337;52.070;4.508;2023-05-02T09:44:17;102811.19;;;13.65;62.56
49030;BME280;43337;52.070;4.508;2023-05-02T09:46:55;102833.66;;;13.84;58.40
49030;BME280;43337;52.070;4.508;2023-05-02T09:49:43;102837.00;;;13.91;54.74
49030;BME280;43337;52.070;4.508;2023-05-02T09:52:12;102828.00;;;14.00;66.15
49030;BME280;43337;52.070;4.508;2023-05-02T09:54:37;102825.91;;;14.12;65.50
49030;BME280;43337;52.070;4.508;2023-05-02T09:57:03;102835.19;;;14.29;64.53
49030;BME280;43337;52.070;4.508;2023-05-02T09:59:28;102832.22;;;14.41;65.48
49030;BME280;43337;52.070;4.508;2023-05-02T10:01:55;102844.13;;;14.59;63.36
49030;BME280;43337;52.070;4.508;2023-05-02T10:04:21;102839.47;;;14.69;63.60
49030;BME280;43337;52.070;4.508;2023-05-02T10:06:48;102832.47;;;14.66;61.50
49030;BME280;43337;52.070;4.508;2023-05-02T10:09:15;102835.25;;;14.61;62.82
49030;BME280;43337;52.070;4.508;2023-05-02T10:11:43;102839.53;;;14.65;62.08
49030;BME280;43337;52.070;4.508;2023-05-02T10:14:09;102830.88;;;14.59;60.93
49030;BME280;43337;52.070;4.508;2023-05-02T10:16:46;102831.38;;;14.39;53.87
49030;BME280;43337;52.070;4.508;2023-05-02T10:19:23;102848.16;;;14.39;57.91
49030;BME280;43337;52.070;4.508;2023-05-02T10:21:49;102850.88;;;14.36;58.33
49030;BME280;43337;52.070;4.508;2023-05-02T10:24:15;102844.13;;;14.25;59.52
49030;BME280;43337;52.070;4.508;2023-05-02T10:26:41;102849.34;;;14.28;58.94
49030;BME280;43337;52.070;4.508;2023-05-02T10:29:07;102834.38;;;14.25;59.84
49030;BME280;43337;52.070;4.508;2023-05-02T10:31:33;102845.31;;;14.47;59.93
49030;BME280;43337;52.070;4.508;2023-05-02T10:33:59;102842.53;;;14.53;60.34
49030;BME280;43337;52.070;4.508;2023-05-02T10:36:27;102838.13;;;14.52;59.13
49030;BME280;43337;52.070;4.508;2023-05-02T10:38:53;102839.91;;;14.52;59.58
49030;BME280;43337;52.070;4.508;2023-05-02T10:41:25;102837.31;;;14.49;60.24
49030;BME280;43337;52.070;4.508;2023-05-02T10:43:51;102844.47;;;14.45;59.50
49030;BME280;43337;52.070;4.508;2023-05-02T10:46:35;102825.84;;;14.48;53.37
49030;BME280;43337;52.070;4.508;2023-05-02T10:49:11;102840.00;;;14.81;58.40
49030;BME280;43337;52.070;4.508;2023-05-02T10:51:39;102851.91;;;14.98;60.05
49030;BME280;43337;52.070;4.508;2023-05-02T10:54:24;102855.69;;;14.89;56.27
49030;BME280;43337;52.070;4.508;2023-05-02T10:59:29;102850.69;;;14.78;58.79
49030;BME280;43337;52.070;4.508;2023-05-02T11:01:55;102847.94;;;14.81;59.71
49030;BME280;43337;52.070;4.508;2023-05-02T11:04:22;102861.84;;;14.89;58.66
49030;BME280;43337;52.070;4.508;2023-05-02T11:11:54;102853.25;;;14.81;57.20
49030;BME280;43337;52.070;4.508;2023-05-02T11:24:52;102868.09;;;14.87;57.12
49030;BME280;43337;52.070;4.508;2023-05-02T11:30:03;102870.25;;;15.05;56.19
49030;BME280;43337;52.070;4.508;2023-05-02T11:35:26;102871.75;;;15.45;55.50
49030;BME280;43337;52.070;4.508;2023-05-02T11:38:09;102878.50;;;15.55;54.42
49030;BME280;43337;52.070;4.508;2023-05-02T11:40:35;102875.75;;;15.58;54.48
49030;BME280;43337;52.070;4.508;2023-05-02T11:43:14;102877.34;;;15.66;54.37
49030;BME280;43337;52.070;4.508;2023-05-02T11:45:40;102873.44;;;15.76;54.63
49030;BME280;43337;52.070;4.508;2023-05-02T11:48:07;102885.38;;;15.91;54.07
49030;BME280;43337;52.070;4.508;2023-05-02T11:50:43;102894.81;;;16.01;54.65
49030;BME280;43337;52.070;4.508;2023-05-02T11:53:14;102900.44;;;15.90;51.99
49030;BME280;43337;52.070;4.508;2023-05-02T11:55:52;102900.38;;;15.65;48.41
49030;BME280;43337;52.070;4.508;2023-05-02T11:58:21;102899.72;;;15.55;51.99
49030;BME280;43337;52.070;4.508;2023-05-02T12:00:47;102885.34;;;15.33;51.49
49030;BME280;43337;52.070;4.508;2023-05-02T12:03:23;102898.38;;;15.42;52.13
49030;BME280;43337;52.070;4.508;2023-05-02T12:05:49;102905.13;;;15.52;52.49
49030;BME280;43337;52.070;4.508;2023-05-02T12:08:23;102912.78;;;15.63;52.21
49030;BME280;43337;52.070;4.508;2023-05-02T12:10:50;102908.91;;;15.75;53.33
49030;BME280;43337;52.070;4.508;2023-05-02T12:13:17;102906.88;;;15.83;52.33
49030;BME280;43337;52.070;4.508;2023-05-02T12:15:42;102897.31;;;15.77;51.53
49030;BME280;43337;52.070;4.508;2023-05-02T12:18:08;102909.84;;;15.74;52.05
49030;BME280;43337;52.070;4.508;2023-05-02T12:20:35;102905.38;;;15.74;51.46
49030;BME280;43337;52.070;4.508;2023-05-02T12:23:01;102900.84;;;15.78;51.50
49030;BME280;43337;52.070;4.508;2023-05-02T12:25:28;102913.13;;;15.82;51.66
49030;BME280;43337;52.070;4.508;2023-05-02T12:28:00;102919.25;;;15.84;51.30
49030;BME280;43337;52.070;4.508;2023-05-02T12:30:28;102894.84;;;15.71;50.33
49030;BME280;43337;52.070;4.508;2023-05-02T12:32:58;102922.81;;;15.83;50.67
49030;BME280;43337;52.070;4.508;2023-05-02T12:35:26;102916.63;;;15.82;50.44
49030;BME280;43337;52.070;4.508;2023-05-02T12:37:52;102931.31;;;15.94;50.60
49030;BME280;43337;52.070;4.508;2023-05-02T12:40:19;102939.19;;;15.97;50.24
49030;BME280;43337;52.070;4.508;2023-05-02T12:43:00;102933.97;;;15.94;48.47
49030;BME280;43337;52.070;4.508;2023-05-02T12:45:29;102933.97;;;15.94;50.24
49030;BME280;43337;52.070;4.508;2023-05-02T12:47:58;102929.66;;;15.92;49.77
49030;BME280;43337;52.070;4.508;2023-05-02T12:50:35;102929.88;;;15.84;49.54
49030;BME280;43337;52.070;4.508;2023-05-02T12:53:01;102934.66;;;15.73;49.34
49030;BME280;43337;52.070;4.508;2023-05-02T12:55:28;102944.44;;;15.71;49.65
49030;BME280;43337;52.070;4.508;2023-05-02T12:58:04;102944.53;;;15.68;50.62
49030;BME280;43337;52.070;4.508;2023-05-02T13:00:31;102944.53;;;15.68;50.05
49030;BME280;43337;52.070;4.508;2023-05-02T13:02:57;102938.25;;;15.70;50.04
49030;BME280;43337;52.070;4.508;2023-05-02T13:05:23;102939.75;;;15.80;49.95
49030;BME280;43337;52.070;4.508;2023-05-02T13:07:48;102958.75;;;15.95;50.03
49030;BME280;43337;52.070;4.508;2023-05-02T13:10:14;102935.22;;;15.82;49.12
49030;BME280;43337;52.070;4.508;2023-05-02T13:12:45;102959.00;;;15.87;48.68
49030;BME280;43337;52.070;4.508;2023-05-02T13:15:11;102959.09;;;15.84;48.81
49030;BME280;43337;52.070;4.508;2023-05-02T13:17:36;102957.34;;;15.83;48.87
49030;BME280;43337;52.070;4.508;2023-05-02T13:20:02;102951.16;;;15.82;48.20
49030;BME280;43337;52.070;4.508;2023-05-02T13:22:27;102935.47;;;15.75;48.81
49030;BME280;43337;52.070;4.508;2023-05-02T13:24:53;102952.53;;;15.96;48.66